sensor_id;sensor_type;location;lat;lon;timestamp;P1;durP1;ratioP1;P2;durP2;ratioP2
61473;SDS011;53694;49.784;30.150;2022-12-31T00:00:53;22.34;;;12.24;;
61473;SDS011;53694;49.784;30.150;2022-12-31T00:01:55;20.56;;;12.92;;
61473;SDS011;53694;49.784;30.150;2022-12-31T00:02:56;20.40;;;13.01;;
61473;SDS011;53694;49.784;30.150;2022-12-31T00:03:58;22.11;;;12.17;;
61473;SDS011;53694;49.784;30.150;2022-12-31T00:05:00;21.91;;;12.95;;
61473;SDS011;53694;49.784;30.150;2022-12-31T00:06:10;23.85;;;14.15;;
61473;SDS011;53694;49.784;30.150;2022-12-31T00:07:19;26.83;;;15.46;;
61473;SDS011;53694;49.784;30.150;2022-12-31T00:08:20;23.96;;;15.32;;
61473;SDS011;53694;49.784;30.150;2022-12-31T00:09:22;26.48;;;16.89;;
61473;SDS011;53694;49.784;30.150;2022-12-31T00:10:24;29.42;;;18.13;;
61473;SDS011;53694;49.784;30.150;2022-12-31T00:11:27;25.33;;;16.15;;
61473;SDS011;53694;49.784;30.150;2022-12-31T00:12:29;23.19;;;14.66;;
61473;SDS011;53694;49.784;30.150;2022-12-31T00:13:31;23.02;;;13.54;;
61473;SDS011;53694;49.784;30.150;2022-12-31T00:14:32;22.25;;;13.61;;
61473;SDS011;53694;49.784;30.150;2022-12-31T00:15:34;22.72;;;13.36;;
61473;SDS011;53694;49.784;30.150;2022-12-31T00:16:37;22.39;;;13.81;;
61473;SDS011;53694;49.784;30.150;2022-12-31T00:17:40;22.10;;;13.42;;
61473;SDS011;53694;49.784;30.150;2022-12-31T00:18:50;22.89;;;13.84;;
61473;SDS011;53694;49.784;30.150;2022-12-31T00:19:53;23.54;;;13.21;;
61473;SDS011;53694;49.784;30.150;2022-12-31T00:20:55;21.52;;;13.39;;
61473;SDS011;53694;49.784;30.150;2022-12-31T00:21:56;21.49;;;12.99;;
61473;SDS011;53694;49.784;30.150;2022-12-31T00:22:57;21.29;;;13.84;;
61473;SDS011;53694;49.784;30.150;2022-12-31T00:24:00;21.24;;;13.91;;
61473;SDS011;53694;49.784;30.150;2022-12-31T00:25:02;24.11;;;14.15;;
61473;SDS011;53694;49.784;30.150;2022-12-31T00:26:05;23.36;;;13.71;;
61473;SDS011;53694;49.784;30.150;2022-12-31T00:27:09;21.49;;;13.77;;
61473;SDS011;53694;49.784;30.150;2022-12-31T00:28:11;26.91;;;13.96;;
61473;SDS011;53694;49.784;30.150;2022-12-31T00:29:13;26.09;;;14.87;;
61473;SDS011;53694;49.784;30.150;2022-12-31T00:30:14;24.65;;;14.79;;
61473;SDS011;53694;49.784;30.150;2022-12-31T00:31:17;25.57;;;15.86;;
61473;SDS011;53694;49.784;30.150;2022-12-31T00:32:23;30.09;;;17.06;;
61473;SDS011;53694;49.784;30.150;2022-12-31T00:33:25;27.77;;;17.50;;
61473;SDS011;53694;49.784;30.150;2022-12-31T00:34:26;29.04;;;17.64;;
61473;SDS011;53694;49.784;30.150;2022-12-31T00:35:28;30.60;;;19.29;;
61473;SDS011;53694;49.784;30.150;2022-12-31T00:36:34;27.76;;;16.26;;
61473;SDS011;53694;49.784;30.150;2022-12-31T00:37:37;24.16;;;16.16;;
61473;SDS011;53694;49.784;30.150;2022-12-31T00:38:40;26.13;;;14.48;;
61473;SDS011;53694;49.784;30.150;2022-12-31T00:39:43;24.45;;;13.42;;
61473;SDS011;53694;49.784;30.150;2022-12-31T00:40:44;22.69;;;12.61;;
61473;SDS011;53694;49.784;30.150;2022-12-31T00:41:46;21.97;;;12.33;;
61473;SDS011;53694;49.784;30.150;2022-12-31T00:42:47;20.01;;;12.21;;
61473;SDS011;53694;49.784;30.150;2022-12-31T00:43:49;22.47;;;11.54;;
61473;SDS011;53694;49.784;30.150;2022-12-31T00:44:51;21.59;;;12.64;;
61473;SDS011;53694;49.784;30.150;2022-12-31T00:45:52;20.97;;;12.81;;
61473;SDS011;53694;49.784;30.150;2022-12-31T00:46:55;24.25;;;13.61;;
61473;SDS011;53694;49.784;30.150;2022-12-31T00:47:56;19.01;;;11.92;;
61473;SDS011;53694;49.784;30.150;2022-12-31T00:48:57;23.28;;;13.34;;
61473;SDS011;53694;49.784;30.150;2022-12-31T00:49:59;22.17;;;13.15;;
61473;SDS011;53694;49.784;30.150;2022-12-31T00:51:01;20.90;;;12.10;;
61473;SDS011;53694;49.784;30.150;2022-12-31T00:52:04;26.30;;;12.89;;
61473;SDS011;53694;49.784;30.150;2022-12-31T00:53:06;22.17;;;12.93;;
61473;SDS011;53694;49.784;30.150;2022-12-31T00:54:08;26.75;;;13.99;;
61473;SDS011;53694;49.784;30.150;2022-12-31T00:55:09;23.49;;;14.17;;
61473;SDS011;53694;49.784;30.150;2022-12-31T00:56:13;24.33;;;15.19;;
61473;SDS011;53694;49.784;30.150;2022-12-31T00:57:16;29.94;;;16.19;;
61473;SDS011;53694;49.784;30.150;2022-12-31T00:58:18;27.31;;;15.56;;
61473;SDS011;53694;49.784;30.150;2022-12-31T00:59:19;27.66;;;15.80;;
61473;SDS011;53694;49.784;30.150;2022-12-31T01:00:21;23.47;;;14.96;;
61473;SDS011;53694;49.784;30.150;2022-12-31T01:02:28;23.61;;;13.08;;
61473;SDS011;53694;49.784;30.150;2022-12-31T01:03:29;20.36;;;12.95;;
61473;SDS011;53694;49.784;30.150;2022-12-31T01:04:31;24.75;;;12.54;;
61473;SDS011;53694;49.784;30.150;2022-12-31T01:05:32;21.41;;;12.22;;
61473;SDS011;53694;49.784;30.150;2022-12-31T01:06:35;20.26;;;11.74;;
61473;SDS011;53694;49.784;30.150;2022-12-31T01:07:37;20.99;;;11.89;;
61473;SDS011;53694;49.784;30.150;2022-12-31T01:08:39;19.92;;;11.86;;
61473;SDS011;53694;49.784;30.150;2022-12-31T01:09:41;18.92;;;10.82;;
61473;SDS011;53694;49.784;30.150;2022-12-31T01:10:47;17.88;;;11.59;;
61473;SDS011;53694;49.784;30.150;2022-12-31T01:11:50;19.10;;;11.68;;
61473;SDS011;53694;49.784;30.150;2022-12-31T01:12:51;20.45;;;11.87;;
61473;SDS011;53694;49.784;30.150;2022-12-31T01:14:03;19.77;;;12.19;;
61473;SDS011;53694;49.784;30.150;2022-12-31T01:15:10;21.61;;;11.73;;
61473;SDS011;53694;49.784;30.150;2022-12-31T01:16:12;17.11;;;10.78;;
61473;SDS011;53694;49.784;30.150;2022-12-31T01:17:14;20.30;;;10.97;;
61473;SDS011;53694;49.784;30.150;2022-12-31T01:18:17;18.71;;;11.16;;
61473;SDS011;53694;49.784;30.150;2022-12-31T01:19:20;19.79;;;12.70;;
61473;SDS011;53694;49.784;30.150;2022-12-31T01:20:24;22.22;;;13.30;;
61473;SDS011;53694;49.784;30.150;2022-12-31T01:21:25;23.25;;;13.06;;
61473;SDS011;53694;49.784;30.150;2022-12-31T01:22:28;20.41;;;13.29;;
61473;SDS011;53694;49.784;30.150;2022-12-31T01:23:29;24.21;;;13.80;;
61473;SDS011;53694;49.784;30.150;2022-12-31T01:24:31;25.15;;;14.23;;
61473;SDS011;53694;49.784;30.150;2022-12-31T01:25:33;21.06;;;13.23;;
61473;SDS011;53694;49.784;30.150;2022-12-31T01:26:37;21.29;;;12.91;;
61473;SDS011;53694;49.784;30.150;2022-12-31T01:27:39;20.47;;;11.53;;
61473;SDS011;53694;49.784;30.150;2022-12-31T01:28:41;19.21;;;11.85;;
61473;SDS011;53694;49.784;30.150;2022-12-31T01:29:42;21.91;;;11.93;;
61473;SDS011;53694;49.784;30.150;2022-12-31T01:30:44;20.93;;;11.87;;
61473;SDS011;53694;49.784;30.150;2022-12-31T01:31:46;24.14;;;11.94;;
61473;SDS011;53694;49.784;30.150;2022-12-31T01:32:47;19.43;;;11.36;;
61473;SDS011;53694;49.784;30.150;2022-12-31T01:33:49;18.44;;;11.22;;
61473;SDS011;53694;49.784;30.150;2022-12-31T01:34:51;21.31;;;11.37;;
61473;SDS011;53694;49.784;30.150;2022-12-31T01:35:53;20.14;;;11.25;;
61473;SDS011;53694;49.784;30.150;2022-12-31T01:36:54;19.20;;;12.05;;
61473;SDS011;53694;49.784;30.150;2022-12-31T01:37:56;20.14;;;11.70;;
61473;SDS011;53694;49.784;30.150;2022-12-31T01:38:58;19.78;;;11.01;;
61473;SDS011;53694;49.784;30.150;2022-12-31T01:40:02;21.62;;;12.15;;
61473;SDS011;53694;49.784;30.150;2022-12-31T01:41:04;20.17;;;11.43;;
61473;SDS011;53694;49.784;30.150;2022-12-31T01:42:08;18.29;;;11.09;;
61473;SDS011;53694;49.784;30.150;2022-12-31T01:43:18;23.03;;;12.12;;
61473;SDS011;53694;49.784;30.150;2022-12-31T01:45:27;26.26;;;13.67;;
61473;SDS011;53694;49.784;30.150;2022-12-31T01:46:37;21.77;;;13.41;;
61473;SDS011;53694;49.784;30.150;2022-12-31T01:47:48;25.14;;;14.99;;
61473;SDS011;53694;49.784;30.150;2022-12-31T01:48:52;27.36;;;16.53;;
61473;SDS011;53694;49.784;30.150;2022-12-31T01:49:58;25.24;;;14.64;;
61473;SDS011;53694;49.784;30.150;2022-12-31T01:51:05;27.42;;;16.73;;
61473;SDS011;53694;49.784;30.150;2022-12-31T01:52:26;23.48;;;14.73;;
61473;SDS011;53694;49.784;30.150;2022-12-31T01:53:27;23.93;;;14.56;;
61473;SDS011;53694;49.784;30.150;2022-12-31T01:54:29;23.77;;;13.21;;
61473;SDS011;53694;49.784;30.150;2022-12-31T01:56:46;22.79;;;14.48;;
61473;SDS011;53694;49.784;30.150;2022-12-31T01:57:50;23.12;;;13.59;;
61473;SDS011;53694;49.784;30.150;2022-12-31T01:58:54;24.44;;;14.10;;
61473;SDS011;53694;49.784;30.150;2022-12-31T01:59:58;23.60;;;14.62;;
61473;SDS011;53694;49.784;30.150;2022-12-31T02:01:01;21.32;;;13.03;;
61473;SDS011;53694;49.784;30.150;2022-12-31T02:02:05;21.71;;;13.14;;
61473;SDS011;53694;49.784;30.150;2022-12-31T02:03:06;21.37;;;13.18;;
61473;SDS011;53694;49.784;30.150;2022-12-31T02:04:09;23.49;;;13.05;;
61473;SDS011;53694;49.784;30.150;2022-12-31T02:05:21;22.55;;;12.92;;
61473;SDS011;53694;49.784;30.150;2022-12-31T02:06:40;22.12;;;13.18;;
61473;SDS011;53694;49.784;30.150;2022-12-31T02:07:50;22.87;;;14.49;;
61473;SDS011;53694;49.784;30.150;2022-12-31T02:08:54;28.79;;;15.72;;
61473;SDS011;53694;49.784;30.150;2022-12-31T02:09:57;25.66;;;15.81;;
61473;SDS011;53694;49.784;30.150;2022-12-31T02:11:00;29.37;;;16.26;;
61473;SDS011;53694;49.784;30.150;2022-12-31T02:12:01;27.11;;;16.76;;
61473;SDS011;53694;49.784;30.150;2022-12-31T02:13:04;26.29;;;17.00;;
61473;SDS011;53694;49.784;30.150;2022-12-31T02:14:26;33.52;;;17.03;;
61473;SDS011;53694;49.784;30.150;2022-12-31T02:24:33;20.11;;;12.28;;
61473;SDS011;53694;49.784;30.150;2022-12-31T02:27:44;20.40;;;11.78;;
61473;SDS011;53694;49.784;30.150;2022-12-31T02:30:24;20.32;;;11.56;;
61473;SDS011;53694;49.784;30.150;2022-12-31T02:31:31;22.02;;;12.01;;
61473;SDS011;53694;49.784;30.150;2022-12-31T02:34:07;23.96;;;13.36;;
61473;SDS011;53694;49.784;30.150;2022-12-31T02:34:55;23.19;;;13.91;;
61473;SDS011;53694;49.784;30.150;2022-12-31T02:36:02;24.85;;;15.33;;
61473;SDS011;53694;49.784;30.150;2022-12-31T02:37:12;28.75;;;15.34;;
61473;SDS011;53694;49.784;30.150;2022-12-31T02:38:18;30.33;;;17.22;;
61473;SDS011;53694;49.784;30.150;2022-12-31T02:39:24;25.02;;;14.67;;
61473;SDS011;53694;49.784;30.150;2022-12-31T02:40:26;21.96;;;13.88;;
61473;SDS011;53694;49.784;30.150;2022-12-31T02:41:28;21.81;;;12.47;;
61473;SDS011;53694;49.784;30.150;2022-12-31T02:42:29;22.24;;;14.09;;
61473;SDS011;53694;49.784;30.150;2022-12-31T02:43:31;23.56;;;14.41;;
61473;SDS011;53694;49.784;30.150;2022-12-31T02:44:35;22.24;;;12.94;;
61473;SDS011;53694;49.784;30.150;2022-12-31T02:45:38;21.16;;;12.52;;
61473;SDS011;53694;49.784;30.150;2022-12-31T02:46:43;23.64;;;13.13;;
61473;SDS011;53694;49.784;30.150;2022-12-31T02:49:13;20.17;;;12.21;;
61473;SDS011;53694;49.784;30.150;2022-12-31T02:55:25;23.07;;;11.89;;
61473;SDS011;53694;49.784;30.150;2022-12-31T02:56:51;22.63;;;13.90;;
61473;SDS011;53694;49.784;30.150;2022-12-31T02:58:03;23.02;;;14.53;;
61473;SDS011;53694;49.784;30.150;2022-12-31T02:59:07;28.40;;;17.41;;
61473;SDS011;53694;49.784;30.150;2022-12-31T03:00:20;27.89;;;17.44;;
61473;SDS011;53694;49.784;30.150;2022-12-31T03:01:24;27.68;;;17.69;;
61473;SDS011;53694;49.784;30.150;2022-12-31T03:02:28;29.47;;;18.78;;
61473;SDS011;53694;49.784;30.150;2022-12-31T03:03:33;33.17;;;20.81;;
61473;SDS011;53694;49.784;30.150;2022-12-31T03:04:36;30.12;;;19.19;;
61473;SDS011;53694;49.784;30.150;2022-12-31T03:05:40;35.34;;;20.91;;
61473;SDS011;53694;49.784;30.150;2022-12-31T03:06:44;35.41;;;17.66;;
61473;SDS011;53694;49.784;30.150;2022-12-31T03:07:46;22.46;;;14.83;;
61473;SDS011;53694;49.784;30.150;2022-12-31T03:08:48;22.61;;;12.15;;
61473;SDS011;53694;49.784;30.150;2022-12-31T03:09:51;21.79;;;11.88;;
61473;SDS011;53694;49.784;30.150;2022-12-31T03:10:54;25.09;;;12.28;;
61473;SDS011;53694;49.784;30.150;2022-12-31T03:11:56;21.61;;;12.27;;
61473;SDS011;53694;49.784;30.150;2022-12-31T03:12:58;20.37;;;12.05;;
61473;SDS011;53694;49.784;30.150;2022-12-31T03:14:00;21.19;;;11.09;;
61473;SDS011;53694;49.784;30.150;2022-12-31T03:15:02;20.54;;;11.86;;
61473;SDS011;53694;49.784;30.150;2022-12-31T03:16:04;20.34;;;11.66;;
61473;SDS011;53694;49.784;30.150;2022-12-31T03:17:06;19.13;;;11.47;;
61473;SDS011;53694;49.784;30.150;2022-12-31T03:18:12;24.92;;;13.25;;
61473;SDS011;53694;49.784;30.150;2022-12-31T03:19:15;24.64;;;13.27;;
61473;SDS011;53694;49.784;30.150;2022-12-31T03:20:17;28.26;;;15.21;;
61473;SDS011;53694;49.784;30.150;2022-12-31T03:21:19;25.92;;;14.47;;
61473;SDS011;53694;49.784;30.150;2022-12-31T03:22:21;24.89;;;15.11;;
61473;SDS011;53694;49.784;30.150;2022-12-31T03:23:32;31.42;;;16.01;;
61473;SDS011;53694;49.784;30.150;2022-12-31T03:24:37;26.92;;;15.00;;
61473;SDS011;53694;49.784;30.150;2022-12-31T03:25:38;24.38;;;14.56;;
61473;SDS011;53694;49.784;30.150;2022-12-31T03:26:40;27.34;;;15.16;;
61473;SDS011;53694;49.784;30.150;2022-12-31T03:27:42;23.58;;;15.40;;
61473;SDS011;53694;49.784;30.150;2022-12-31T03:28:44;24.23;;;13.46;;
61473;SDS011;53694;49.784;30.150;2022-12-31T03:29:46;23.55;;;13.57;;
61473;SDS011;53694;49.784;30.150;2022-12-31T03:30:49;20.83;;;12.00;;
61473;SDS011;53694;49.784;30.150;2022-12-31T03:31:52;21.71;;;11.66;;
61473;SDS011;53694;49.784;30.150;2022-12-31T03:32:54;19.65;;;10.67;;
61473;SDS011;53694;49.784;30.150;2022-12-31T03:33:56;18.85;;;11.16;;
61473;SDS011;53694;49.784;30.150;2022-12-31T03:34:58;19.81;;;11.99;;
61473;SDS011;53694;49.784;30.150;2022-12-31T03:36:02;19.19;;;11.36;;
61473;SDS011;53694;49.784;30.150;2022-12-31T03:37:07;19.75;;;11.94;;
61473;SDS011;53694;49.784;30.150;2022-12-31T03:38:08;18.69;;;11.38;;
61473;SDS011;53694;49.784;30.150;2022-12-31T03:39:10;24.46;;;12.58;;
61473;SDS011;53694;49.784;30.150;2022-12-31T03:40:12;19.86;;;12.13;;
61473;SDS011;53694;49.784;30.150;2022-12-31T03:41:14;20.34;;;13.22;;
61473;SDS011;53694;49.784;30.150;2022-12-31T03:42:16;19.99;;;12.29;;
61473;SDS011;53694;49.784;30.150;2022-12-31T03:43:18;23.62;;;13.01;;
61473;SDS011;53694;49.784;30.150;2022-12-31T03:44:20;21.28;;;11.81;;
61473;SDS011;53694;49.784;30.150;2022-12-31T03:45:22;22.37;;;13.66;;
61473;SDS011;53694;49.784;30.150;2022-12-31T03:46:24;23.66;;;14.97;;
61473;SDS011;53694;49.784;30.150;2022-12-31T03:47:25;24.30;;;14.00;;
61473;SDS011;53694;49.784;30.150;2022-12-31T03:48:28;23.62;;;14.92;;
61473;SDS011;53694;49.784;30.150;2022-12-31T03:49:30;27.63;;;15.60;;
61473;SDS011;53694;49.784;30.150;2022-12-31T03:50:31;27.81;;;16.41;;
61473;SDS011;53694;49.784;30.150;2022-12-31T03:51:33;26.90;;;15.73;;
61473;SDS011;53694;49.784;30.150;2022-12-31T03:52:35;26.64;;;15.66;;
61473;SDS011;53694;49.784;30.150;2022-12-31T03:53:37;26.81;;;15.05;;
61473;SDS011;53694;49.784;30.150;2022-12-31T03:54:38;25.26;;;13.64;;
61473;SDS011;53694;49.784;30.150;2022-12-31T03:55:40;22.24;;;13.51;;
61473;SDS011;53694;49.784;30.150;2022-12-31T03:56:41;23.35;;;13.65;;
61473;SDS011;53694;49.784;30.150;2022-12-31T03:57:43;26.05;;;13.55;;
61473;SDS011;53694;49.784;30.150;2022-12-31T03:58:45;21.13;;;12.47;;
61473;SDS011;53694;49.784;30.150;2022-12-31T03:59:46;20.89;;;12.46;;
61473;SDS011;53694;49.784;30.150;2022-12-31T04:00:48;22.23;;;13.11;;
61473;SDS011;53694;49.784;30.150;2022-12-31T04:01:50;22.31;;;12.62;;
61473;SDS011;53694;49.784;30.150;2022-12-31T04:02:51;21.68;;;11.74;;
61473;SDS011;53694;49.784;30.150;2022-12-31T04:03:53;17.73;;;11.04;;
61473;SDS011;53694;49.784;30.150;2022-12-31T04:04:54;20.94;;;11.56;;
61473;SDS011;53694;49.784;30.150;2022-12-31T04:05:56;18.92;;;11.91;;
61473;SDS011;53694;49.784;30.150;2022-12-31T04:06:58;20.96;;;11.55;;
61473;SDS011;53694;49.784;30.150;2022-12-31T04:07:59;19.55;;;11.65;;
61473;SDS011;53694;49.784;30.150;2022-12-31T04:09:01;21.96;;;12.93;;
61473;SDS011;53694;49.784;30.150;2022-12-31T04:10:03;20.84;;;12.51;;
61473;SDS011;53694;49.784;30.150;2022-12-31T04:11:06;22.31;;;11.88;;
61473;SDS011;53694;49.784;30.150;2022-12-31T04:12:08;39.14;;;22.34;;
61473;SDS011;53694;49.784;30.150;2022-12-31T04:13:09;20.84;;;13.27;;
61473;SDS011;53694;49.784;30.150;2022-12-31T04:14:11;24.04;;;14.32;;
61473;SDS011;53694;49.784;30.150;2022-12-31T04:15:17;23.81;;;14.29;;
61473;SDS011;53694;49.784;30.150;2022-12-31T04:16:20;27.39;;;16.41;;
61473;SDS011;53694;49.784;30.150;2022-12-31T04:17:21;23.67;;;14.84;;
61473;SDS011;53694;49.784;30.150;2022-12-31T04:18:23;26.11;;;16.26;;
61473;SDS011;53694;49.784;30.150;2022-12-31T04:19:24;27.08;;;16.16;;
61473;SDS011;53694;49.784;30.150;2022-12-31T04:20:26;26.11;;;15.07;;
61473;SDS011;53694;49.784;30.150;2022-12-31T04:21:27;24.02;;;13.73;;
61473;SDS011;53694;49.784;30.150;2022-12-31T04:22:29;22.19;;;13.66;;
61473;SDS011;53694;49.784;30.150;2022-12-31T04:23:31;21.99;;;13.39;;
61473;SDS011;53694;49.784;30.150;2022-12-31T04:24:32;24.74;;;13.92;;
61473;SDS011;53694;49.784;30.150;2022-12-31T04:25:34;25.56;;;14.39;;
61473;SDS011;53694;49.784;30.150;2022-12-31T04:26:35;21.16;;;13.29;;
61473;SDS011;53694;49.784;30.150;2022-12-31T04:27:38;23.70;;;13.05;;
61473;SDS011;53694;49.784;30.150;2022-12-31T04:28:40;20.12;;;11.83;;
61473;SDS011;53694;49.784;30.150;2022-12-31T04:29:42;17.56;;;11.53;;
61473;SDS011;53694;49.784;30.150;2022-12-31T04:30:44;21.62;;;12.21;;
61473;SDS011;53694;49.784;30.150;2022-12-31T04:31:45;19.14;;;11.97;;
61473;SDS011;53694;49.784;30.150;2022-12-31T04:32:47;24.09;;;13.00;;
61473;SDS011;53694;49.784;30.150;2022-12-31T04:33:48;19.69;;;11.54;;
61473;SDS011;53694;49.784;30.150;2022-12-31T04:34:50;22.10;;;12.49;;
61473;SDS011;53694;49.784;30.150;2022-12-31T04:35:52;22.79;;;12.58;;
61473;SDS011;53694;49.784;30.150;2022-12-31T04:36:53;23.43;;;12.24;;
61473;SDS011;53694;49.784;30.150;2022-12-31T04:37:55;21.18;;;12.49;;
61473;SDS011;53694;49.784;30.150;2022-12-31T04:38:56;23.47;;;13.59;;
61473;SDS011;53694;49.784;30.150;2022-12-31T04:39:58;24.24;;;13.71;;
61473;SDS011;53694;49.784;30.150;2022-12-31T04:40:59;21.99;;;13.27;;
61473;SDS011;53694;49.784;30.150;2022-12-31T04:42:01;24.54;;;14.57;;
61473;SDS011;53694;49.784;30.150;2022-12-31T04:43:03;22.72;;;14.16;;
61473;SDS011;53694;49.784;30.150;2022-12-31T04:44:04;25.33;;;14.80;;
61473;SDS011;53694;49.784;30.150;2022-12-31T04:45:06;21.91;;;12.66;;
61473;SDS011;53694;49.784;30.150;2022-12-31T04:46:08;21.99;;;12.39;;
61473;SDS011;53694;49.784;30.150;2022-12-31T04:47:10;20.05;;;12.47;;
61473;SDS011;53694;49.784;30.150;2022-12-31T04:48:12;22.09;;;12.74;;
61473;SDS011;53694;49.784;30.150;2022-12-31T04:49:13;30.21;;;18.39;;
61473;SDS011;53694;49.784;30.150;2022-12-31T04:50:15;20.79;;;12.09;;
61473;SDS011;53694;49.784;30.150;2022-12-31T04:51:17;18.81;;;10.88;;
61473;SDS011;53694;49.784;30.150;2022-12-31T04:52:19;19.07;;;11.37;;
61473;SDS011;53694;49.784;30.150;2022-12-31T04:53:20;21.01;;;12.14;;
61473;SDS011;53694;49.784;30.150;2022-12-31T04:54:22;18.28;;;11.47;;
61473;SDS011;53694;49.784;30.150;2022-12-31T04:55:23;19.40;;;12.64;;
61473;SDS011;53694;49.784;30.150;2022-12-31T04:56:25;21.27;;;12.28;;
61473;SDS011;53694;49.784;30.150;2022-12-31T04:57:27;19.90;;;12.11;;
61473;SDS011;53694;49.784;30.150;2022-12-31T04:58:29;18.74;;;11.60;;
61473;SDS011;53694;49.784;30.150;2022-12-31T04:59:31;20.59;;;12.41;;
61473;SDS011;53694;49.784;30.150;2022-12-31T05:00:33;19.40;;;12.09;;
61473;SDS011;53694;49.784;30.150;2022-12-31T05:01:34;22.11;;;11.81;;
61473;SDS011;53694;49.784;30.150;2022-12-31T05:02:36;19.78;;;12.55;;
61473;SDS011;53694;49.784;30.150;2022-12-31T05:03:37;20.72;;;13.01;;
61473;SDS011;53694;49.784;30.150;2022-12-31T05:04:39;24.39;;;14.07;;
61473;SDS011;53694;49.784;30.150;2022-12-31T05:05:41;23.88;;;14.02;;
61473;SDS011;53694;49.784;30.150;2022-12-31T05:06:43;25.43;;;14.55;;
61473;SDS011;53694;49.784;30.150;2022-12-31T05:07:44;27.61;;;15.67;;
61473;SDS011;53694;49.784;30.150;2022-12-31T05:08:46;26.74;;;16.24;;
61473;SDS011;53694;49.784;30.150;2022-12-31T05:09:49;23.89;;;14.23;;
61473;SDS011;53694;49.784;30.150;2022-12-31T05:10:50;25.11;;;13.80;;
61473;SDS011;53694;49.784;30.150;2022-12-31T05:11:52;26.17;;;13.27;;
61473;SDS011;53694;49.784;30.150;2022-12-31T05:12:53;22.19;;;13.54;;
61473;SDS011;53694;49.784;30.150;2022-12-31T05:13:55;23.37;;;12.88;;
61473;SDS011;53694;49.784;30.150;2022-12-31T05:14:57;22.14;;;13.79;;
61473;SDS011;53694;49.784;30.150;2022-12-31T05:15:58;22.92;;;13.64;;
61473;SDS011;53694;49.784;30.150;2022-12-31T05:17:00;23.02;;;12.99;;
61473;SDS011;53694;49.784;30.150;2022-12-31T05:18:01;25.25;;;14.58;;
61473;SDS011;53694;49.784;30.150;2022-12-31T05:19:03;22.68;;;13.39;;
61473;SDS011;53694;49.784;30.150;2022-12-31T05:20:05;21.76;;;13.10;;
61473;SDS011;53694;49.784;30.150;2022-12-31T05:21:08;20.39;;;12.44;;
61473;SDS011;53694;49.784;30.150;2022-12-31T05:22:13;23.78;;;13.63;;
61473;SDS011;53694;49.784;30.150;2022-12-31T05:23:15;20.41;;;13.42;;
61473;SDS011;53694;49.784;30.150;2022-12-31T05:24:17;20.77;;;12.67;;
61473;SDS011;53694;49.784;30.150;2022-12-31T05:25:18;21.49;;;12.51;;
61473;SDS011;53694;49.784;30.150;2022-12-31T05:26:20;20.57;;;12.34;;
61473;SDS011;53694;49.784;30.150;2022-12-31T05:27:22;22.01;;;12.75;;
61473;SDS011;53694;49.784;30.150;2022-12-31T05:28:24;23.43;;;13.51;;
61473;SDS011;53694;49.784;30.150;2022-12-31T05:29:26;24.83;;;14.61;;
61473;SDS011;53694;49.784;30.150;2022-12-31T05:30:27;21.51;;;14.15;;
61473;SDS011;53694;49.784;30.150;2022-12-31T05:31:29;23.79;;;15.82;;
61473;SDS011;53694;49.784;30.150;2022-12-31T05:32:31;26.19;;;16.96;;
61473;SDS011;53694;49.784;30.150;2022-12-31T05:33:32;27.01;;;17.03;;
61473;SDS011;53694;49.784;30.150;2022-12-31T05:34:34;28.72;;;15.59;;
61473;SDS011;53694;49.784;30.150;2022-12-31T05:35:35;23.34;;;14.19;;
61473;SDS011;53694;49.784;30.150;2022-12-31T05:36:37;22.41;;;14.21;;
61473;SDS011;53694;49.784;30.150;2022-12-31T05:37:39;26.36;;;15.04;;
61473;SDS011;53694;49.784;30.150;2022-12-31T05:38:40;29.36;;;16.08;;
61473;SDS011;53694;49.784;30.150;2022-12-31T05:39:42;23.42;;;14.74;;
61473;SDS011;53694;49.784;30.150;2022-12-31T05:40:44;23.25;;;14.15;;
61473;SDS011;53694;49.784;30.150;2022-12-31T05:41:45;22.82;;;13.89;;
61473;SDS011;53694;49.784;30.150;2022-12-31T05:42:48;24.92;;;14.71;;
61473;SDS011;53694;49.784;30.150;2022-12-31T05:43:50;22.86;;;13.79;;
61473;SDS011;53694;49.784;30.150;2022-12-31T05:44:51;23.66;;;14.24;;
61473;SDS011;53694;49.784;30.150;2022-12-31T05:45:53;22.52;;;13.69;;
61473;SDS011;53694;49.784;30.150;2022-12-31T05:46:55;31.39;;;16.11;;
61473;SDS011;53694;49.784;30.150;2022-12-31T05:47:56;33.47;;;18.43;;
61473;SDS011;53694;49.784;30.150;2022-12-31T05:48:58;34.01;;;18.34;;
61473;SDS011;53694;49.784;30.150;2022-12-31T05:49:59;37.56;;;22.00;;
61473;SDS011;53694;49.784;30.150;2022-12-31T05:51:01;34.18;;;20.27;;
61473;SDS011;53694;49.784;30.150;2022-12-31T05:52:02;39.93;;;23.22;;
61473;SDS011;53694;49.784;30.150;2022-12-31T05:53:04;37.64;;;22.54;;
61473;SDS011;53694;49.784;30.150;2022-12-31T05:54:05;34.51;;;20.07;;
61473;SDS011;53694;49.784;30.150;2022-12-31T05:55:07;31.94;;;19.80;;
61473;SDS011;53694;49.784;30.150;2022-12-31T05:56:10;29.78;;;16.82;;
61473;SDS011;53694;49.784;30.150;2022-12-31T05:57:11;24.92;;;14.85;;
61473;SDS011;53694;49.784;30.150;2022-12-31T05:58:13;23.81;;;13.68;;
61473;SDS011;53694;49.784;30.150;2022-12-31T05:59:16;25.27;;;15.09;;
61473;SDS011;53694;49.784;30.150;2022-12-31T06:00:17;22.77;;;14.81;;
61473;SDS011;53694;49.784;30.150;2022-12-31T06:01:21;26.37;;;15.38;;
61473;SDS011;53694;49.784;30.150;2022-12-31T06:02:23;23.10;;;14.65;;
61473;SDS011;53694;49.784;30.150;2022-12-31T06:03:24;26.35;;;14.34;;
61473;SDS011;53694;49.784;30.150;2022-12-31T06:04:26;22.56;;;13.47;;
61473;SDS011;53694;49.784;30.150;2022-12-31T06:05:27;34.56;;;18.56;;
61473;SDS011;53694;49.784;30.150;2022-12-31T06:06:29;38.37;;;21.04;;
61473;SDS011;53694;49.784;30.150;2022-12-31T06:07:31;38.89;;;21.27;;
61473;SDS011;53694;49.784;30.150;2022-12-31T06:08:33;31.86;;;19.29;;
61473;SDS011;53694;49.784;30.150;2022-12-31T06:09:35;36.81;;;22.21;;
61473;SDS011;53694;49.784;30.150;2022-12-31T06:10:37;31.52;;;17.71;;
61473;SDS011;53694;49.784;30.150;2022-12-31T06:11:39;44.60;;;25.91;;
61473;SDS011;53694;49.784;30.150;2022-12-31T06:12:41;56.53;;;31.31;;
61473;SDS011;53694;49.784;30.150;2022-12-31T06:13:42;52.67;;;30.60;;
61473;SDS011;53694;49.784;30.150;2022-12-31T06:14:44;56.89;;;31.28;;
61473;SDS011;53694;49.784;30.150;2022-12-31T06:15:45;50.51;;;29.24;;
61473;SDS011;53694;49.784;30.150;2022-12-31T06:16:47;42.77;;;25.09;;
61473;SDS011;53694;49.784;30.150;2022-12-31T06:17:49;39.21;;;21.58;;
61473;SDS011;53694;49.784;30.150;2022-12-31T06:18:50;32.34;;;18.17;;
61473;SDS011;53694;49.784;30.150;2022-12-31T06:19:51;31.91;;;18.54;;
61473;SDS011;53694;49.784;30.150;2022-12-31T06:20:53;31.88;;;17.56;;
61473;SDS011;53694;49.784;30.150;2022-12-31T06:21:56;33.70;;;18.13;;
61473;SDS011;53694;49.784;30.150;2022-12-31T06:22:58;34.73;;;19.76;;
61473;SDS011;53694;49.784;30.150;2022-12-31T06:23:59;34.37;;;18.59;;
61473;SDS011;53694;49.784;30.150;2022-12-31T06:25:01;36.48;;;19.65;;
61473;SDS011;53694;49.784;30.150;2022-12-31T06:26:03;28.95;;;15.73;;